createdAt,value
2017-04-07T00:00:43.318Z,55.90
2017-04-07T00:01:41.795Z,56.00
2017-04-07T00:02:40.007Z,55.90
2017-04-07T00:03:38.194Z,56.20
2017-04-07T00:04:36.641Z,56.40
2017-04-07T00:05:35.482Z,56.90
2017-04-07T00:06:33.591Z,57.00
2017-04-07T00:07:32.808Z,56.90
2017-04-07T00:08:30.973Z,56.40
2017-04-07T00:09:28.709Z,56.40
2017-04-07T00:10:26.859Z,56.60
2017-04-07T00:11:24.565Z,56.50
2017-04-07T00:12:22.483Z,56.40
2017-04-07T00:13:21.208Z,56.50
2017-04-07T00:14:20.123Z,56.70
2017-04-07T00:15:18.991Z,56.40
2017-04-07T00:16:17.534Z,56.30
2017-04-07T00:17:15.411Z,56.30
2017-04-07T00:18:13.580Z,55.60
2017-04-07T00:19:11.647Z,55.70
2017-04-07T00:20:10.164Z,55.50
2017-04-07T00:21:08.084Z,55.80
2017-04-07T00:22:06.004Z,55.80
2017-04-07T00:23:04.912Z,55.80
2017-04-07T00:24:02.764Z,55.90
2017-04-07T00:25:01.097Z,55.10
2017-04-07T00:25:59.547Z,55.50
2017-04-07T00:26:57.417Z,56.00
2017-04-07T00:27:55.746Z,56.20
2017-04-07T00:28:53.960Z,56.30
2017-04-07T00:29:51.698Z,55.50
2017-04-07T00:30:49.555Z,56.30
2017-04-07T00:31:47.399Z,56.40
2017-04-07T00:32:45.450Z,56.20
2017-04-07T00:33:43.863Z,56.20
2017-04-07T00:34:42.428Z,55.80
2017-04-07T00:35:40.397Z,55.70
2017-04-07T00:36:38.342Z,56.10
2017-04-07T00:37:37.432Z,55.90
2017-04-07T00:38:35.374Z,55.80
2017-04-07T00:39:33.639Z,56.40
2017-04-07T00:40:32.059Z,55.70
2017-04-07T00:41:30.371Z,55.70
2017-04-07T00:42:28.717Z,56.50
2017-04-07T00:43:26.803Z,56.40
2017-04-07T00:44:24.813Z,56.30
2017-04-07T00:45:22.834Z,56.40
2017-04-07T00:46:21.824Z,56.10
2017-04-07T00:47:20.335Z,55.80
2017-04-07T00:48:18.971Z,56.30
2017-04-07T00:49:16.707Z,55.50
2017-04-07T00:50:14.894Z,56.20
2017-04-07T00:51:13.229Z,56.40
2017-04-07T00:52:11.123Z,56.30
2017-04-07T00:53:11.013Z,57.00
2017-04-07T00:54:09.173Z,56.80
2017-04-07T00:55:07.739Z,56.30
2017-04-07T00:56:06.116Z,57.30
2017-04-07T00:57:04.507Z,57.60
2017-04-07T00:58:03.168Z,57.90
2017-04-07T00:59:02.256Z,57.10
2017-04-07T01:00:01.199Z,57.40
2017-04-07T01:00:59.340Z,57.00
2017-04-07T01:01:57.339Z,57.40
2017-04-07T01:02:55.203Z,57.30
2017-04-07T01:03:53.806Z,56.90
2017-04-07T01:04:51.751Z,58.00
2017-04-07T01:05:49.452Z,57.90
2017-04-07T01:06:47.122Z,57.80
2017-04-07T01:07:44.748Z,57.60
2017-04-07T01:08:42.646Z,57.60
2017-04-07T01:09:40.996Z,57.70
2017-04-07T01:10:38.685Z,58.00
2017-04-07T01:11:36.474Z,57.50
2017-04-07T01:12:34.248Z,57.70
2017-04-07T01:13:39.172Z,57.80
2017-04-07T01:14:36.921Z,58.10
2017-04-07T01:15:35.106Z,58.00
2017-04-07T01:16:33.391Z,58.40
2017-04-07T01:17:31.349Z,58.10
2017-04-07T01:18:29.074Z,58.40
2017-04-07T01:19:26.734Z,58.30
2017-04-07T01:20:24.431Z,59.00
2017-04-07T01:21:22.546Z,59.50
2017-04-07T01:22:20.386Z,60.00
2017-04-07T01:23:18.756Z,60.00
2017-04-07T01:24:16.579Z,60.10
2017-04-07T01:25:14.303Z,59.50
2017-04-07T01:26:12.236Z,59.10
2017-04-07T01:27:09.956Z,59.80
2017-04-07T01:28:07.616Z,60.10
2017-04-07T01:29:06.489Z,60.00
2017-04-07T01:30:04.813Z,60.90
2017-04-07T01:31:03.259Z,61.00
2017-04-07T01:32:00.987Z,60.30
2017-04-07T01:32:58.820Z,60.00
2017-04-07T01:33:57.191Z,60.30
2017-04-07T01:34:55.059Z,60.30
2017-04-07T01:35:52.827Z,60.60
2017-04-07T01:36:50.863Z,61.00
2017-04-07T01:37:48.728Z,61.00
2017-04-07T01:38:46.476Z,61.50
2017-04-07T01:39:44.761Z,62.10
2017-04-07T01:40:42.724Z,61.80
2017-04-07T01:41:40.595Z,62.00
2017-04-07T01:42:38.409Z,61.50
2017-04-07T01:43:36.368Z,61.60
2017-04-07T01:44:34.064Z,61.20
2017-04-07T01:45:31.825Z,61.90
2017-04-07T01:46:29.772Z,61.70
2017-04-07T01:47:28.473Z,62.00
2017-04-07T01:48:26.299Z,61.30
2017-04-07T01:49:24.112Z,61.80
2017-04-07T01:50:21.819Z,60.90
2017-04-07T01:51:20.573Z,60.80
2017-04-07T01:52:19.172Z,60.50
2017-04-07T01:53:16.867Z,60.90
2017-04-07T01:54:14.645Z,60.60
2017-04-07T01:55:12.385Z,61.00
2017-04-07T01:56:10.153Z,61.40
2017-04-07T01:57:07.885Z,62.20
2017-04-07T01:58:05.500Z,62.10
2017-04-07T01:59:04.186Z,62.80
2017-04-07T02:00:02.081Z,62.80
2017-04-07T02:00:59.964Z,62.90
2017-04-07T02:01:57.654Z,62.60
2017-04-07T02:02:55.588Z,63.10
2017-04-07T02:03:53.444Z,63.10
2017-04-07T02:04:51.113Z,63.60
2017-04-07T02:05:48.789Z,63.20
2017-04-07T02:06:46.689Z,63.50
2017-04-07T02:07:44.359Z,64.00
2017-04-07T02:08:42.021Z,64.00
2017-04-07T02:09:39.803Z,63.60
2017-04-07T02:10:37.614Z,63.50
2017-04-07T02:11:35.267Z,63.70
2017-04-07T02:12:32.977Z,64.10
2017-04-07T02:13:31.217Z,64.40
2017-04-07T02:14:29.411Z,64.20
2017-04-07T02:15:27.642Z,64.00
2017-04-07T02:16:25.528Z,63.60
2017-04-07T02:17:23.393Z,62.50
2017-04-07T02:18:21.064Z,62.20
2017-04-07T02:19:18.952Z,62.30
2017-04-07T02:20:16.652Z,61.70
2017-04-07T02:21:14.344Z,62.00
2017-04-07T02:22:12.758Z,62.80
2017-04-07T02:23:10.626Z,62.30
2017-04-07T02:24:09.191Z,62.30
2017-04-07T02:25:07.100Z,62.50
2017-04-07T02:26:04.759Z,62.60
2017-04-07T02:27:02.611Z,62.60
2017-04-07T02:28:00.490Z,63.10
2017-04-07T02:28:58.323Z,62.20
2017-04-07T02:29:56.020Z,62.60
2017-04-07T02:30:54.312Z,62.60
2017-04-07T02:31:52.241Z,62.80
2017-04-07T02:32:49.920Z,63.40
2017-04-07T02:33:48.203Z,63.50
2017-04-07T02:34:46.011Z,63.30
2017-04-07T02:35:46.760Z,63.30
2017-04-07T02:38:38.037Z,62.60
2017-04-07T02:39:35.695Z,62.40
2017-04-07T02:40:33.595Z,62.80
2017-04-07T02:41:31.317Z,63.10
2017-04-07T02:42:29.201Z,62.10
2017-04-07T02:43:27.019Z,61.80
2017-04-07T02:44:24.781Z,61.10
2017-04-07T02:45:22.605Z,60.90
2017-04-07T02:46:20.271Z,60.20
2017-04-07T02:47:18.053Z,61.40
2017-04-07T02:48:15.852Z,61.30
2017-04-07T02:49:14.164Z,60.50
2017-04-07T02:50:11.921Z,60.40
2017-04-07T02:51:09.600Z,60.50
2017-04-07T02:52:07.291Z,61.50
2017-04-07T02:53:05.008Z,60.90
2017-04-07T02:54:02.660Z,61.00
2017-04-07T02:55:00.947Z,60.00
2017-04-07T02:55:58.663Z,59.80
2017-04-07T02:56:56.291Z,59.00
2017-04-07T02:57:54.699Z,59.30
2017-04-07T02:58:52.324Z,59.40
2017-04-07T02:59:50.007Z,60.10
2017-04-07T03:00:49.242Z,59.80
2017-04-07T03:01:47.016Z,60.10
2017-04-07T03:02:46.068Z,60.50
2017-04-07T03:03:44.271Z,60.70
2017-04-07T03:04:42.155Z,61.70
2017-04-07T03:05:39.872Z,61.60
2017-04-07T03:06:37.575Z,61.10
2017-04-07T03:07:35.422Z,61.70
2017-04-07T03:08:33.139Z,62.30
2017-04-07T03:09:30.796Z,62.10
2017-04-07T03:10:29.520Z,62.20
2017-04-07T03:11:27.163Z,62.30
2017-04-07T03:12:24.799Z,62.10
2017-04-07T03:13:22.627Z,62.20
2017-04-07T03:14:20.279Z,62.00
2017-04-07T03:15:17.993Z,61.30
2017-04-07T03:16:15.840Z,60.70
2017-04-07T03:17:13.487Z,59.30
2017-04-07T03:18:11.185Z,59.50
2017-04-07T03:19:09.144Z,59.40
2017-04-07T03:20:07.132Z,59.50
2017-04-07T03:21:04.780Z,59.70
2017-04-07T03:22:02.603Z,59.40
2017-04-07T03:23:00.488Z,58.90
2017-04-07T03:23:58.219Z,59.40
2017-04-07T03:24:55.856Z,59.60
2017-04-07T03:25:54.120Z,59.70
2017-04-07T03:26:51.920Z,60.40
2017-04-07T03:27:49.568Z,60.10
2017-04-07T03:28:47.248Z,59.60
2017-04-07T03:29:44.951Z,59.50
2017-04-07T03:30:42.787Z,59.90
2017-04-07T03:32:48.331Z,60.60
2017-04-07T03:33:46.221Z,60.60
2017-04-07T03:34:43.882Z,61.10
2017-04-07T03:35:42.180Z,60.30
2017-04-07T03:36:39.840Z,60.30
2017-04-07T03:37:37.482Z,60.40
2017-04-07T03:38:35.291Z,60.60
2017-04-07T03:39:33.168Z,60.70
2017-04-07T03:40:30.918Z,59.60
2017-04-07T03:41:28.643Z,59.40
2017-04-07T03:42:26.842Z,59.30
2017-04-07T03:43:24.767Z,60.10
2017-04-07T03:44:22.564Z,59.40
2017-04-07T03:45:20.380Z,60.00
2017-04-07T03:46:18.854Z,60.60
2017-04-07T03:47:16.549Z,60.80
2017-04-07T03:48:14.856Z,60.30
2017-04-07T03:49:12.519Z,60.00
2017-04-07T03:50:10.541Z,59.40
2017-04-07T03:51:08.356Z,59.60
2017-04-07T03:52:06.300Z,59.60
2017-04-07T03:53:04.141Z,59.60
2017-04-07T03:54:01.776Z,60.40
2017-04-07T03:54:59.433Z,59.90
2017-04-07T03:55:58.498Z,60.20
2017-04-07T03:56:56.195Z,59.40
2017-04-07T03:57:54.677Z,59.30
2017-04-07T03:58:52.524Z,58.90
2017-04-07T03:59:50.175Z,58.80
2017-04-07T04:00:48.299Z,58.00
2017-04-07T04:01:46.235Z,57.90
2017-04-07T04:02:43.860Z,58.40
2017-04-07T04:03:41.487Z,57.60
2017-04-07T04:04:39.349Z,57.50
2017-04-07T04:05:37.031Z,57.30
2017-04-07T04:06:34.685Z,57.10
2017-04-07T04:07:32.768Z,57.90
2017-04-07T04:08:30.376Z,58.10
2017-04-07T04:09:28.217Z,57.90
2017-04-07T04:10:26.048Z,57.60
2017-04-07T04:11:23.698Z,56.50
2017-04-07T04:12:21.544Z,56.70
2017-04-07T04:13:19.983Z,56.80
2017-04-07T04:14:17.825Z,56.20
2017-04-07T04:15:15.673Z,56.90
2017-04-07T04:16:13.428Z,57.80
2017-04-07T04:17:11.868Z,57.70
2017-04-07T04:18:09.737Z,58.30
2017-04-07T04:19:07.491Z,57.80
2017-04-07T04:20:06.359Z,58.70
2017-04-07T04:21:04.319Z,58.20
2017-04-07T04:22:03.640Z,59.30
2017-04-07T04:23:01.475Z,59.50
2017-04-07T04:24:00.240Z,60.30
2017-04-07T04:24:57.867Z,60.80
2017-04-07T04:25:55.872Z,60.60
2017-04-07T04:26:53.912Z,60.20
2017-04-07T04:27:51.743Z,60.70
2017-04-07T04:28:49.508Z,60.30
2017-04-07T04:29:47.312Z,60.40
2017-04-07T04:30:46.017Z,60.50
2017-04-07T04:31:43.731Z,59.80
2017-04-07T04:32:41.353Z,59.70
2017-04-07T04:33:39.061Z,60.00
2017-04-07T04:34:36.776Z,60.00
2017-04-07T04:39:46.700Z,59.90
2017-04-07T04:40:45.364Z,60.80
2017-04-07T04:41:43.231Z,62.80
2017-04-07T04:42:44.033Z,63.00
2017-04-07T04:43:41.759Z,63.40
2017-04-07T04:44:39.407Z,62.40
2017-04-07T04:45:37.536Z,62.30
2017-04-07T04:46:35.248Z,61.90
2017-04-07T04:47:32.907Z,61.20
2017-04-07T04:48:30.556Z,61.00
2017-04-07T04:49:28.192Z,61.40
2017-04-07T04:50:25.943Z,59.80
2017-04-07T04:51:23.604Z,60.20
2017-04-07T04:52:21.812Z,60.20
2017-04-07T04:53:20.563Z,60.40
2017-04-07T04:54:18.300Z,61.10
2017-04-07T04:55:16.071Z,61.30
2017-04-07T04:56:13.761Z,61.10
2017-04-07T04:57:11.624Z,61.40
2017-04-07T04:58:09.383Z,61.40
2017-04-07T04:59:07.058Z,61.40
2017-04-07T05:00:05.377Z,61.20
2017-04-07T05:01:03.236Z,61.60
2017-04-07T05:02:00.944Z,61.40
2017-04-07T05:02:58.588Z,61.40
2017-04-07T05:03:56.558Z,61.40
2017-04-07T05:04:54.986Z,62.70
2017-04-07T05:05:53.672Z,63.50
2017-04-07T05:06:51.353Z,63.20
2017-04-07T05:07:49.011Z,62.90
2017-04-07T05:08:46.660Z,63.10
2017-04-07T05:09:44.505Z,64.20
2017-04-07T05:10:42.492Z,64.30
2017-04-07T05:11:41.504Z,64.40
2017-04-07T05:12:39.125Z,64.80
2017-04-07T05:13:36.786Z,64.80
2017-04-07T05:14:34.438Z,64.50
2017-04-07T05:15:32.169Z,64.90
2017-04-07T05:16:29.912Z,65.00
2017-04-07T05:17:27.768Z,65.60
2017-04-07T05:18:26.139Z,64.70
2017-04-07T05:19:23.784Z,65.20
2017-04-07T05:20:21.652Z,65.50
2017-04-07T05:21:19.532Z,65.20
2017-04-07T05:22:17.604Z,65.40
2017-04-07T05:23:18.309Z,65.90
2017-04-07T05:24:16.522Z,65.80
2017-04-07T05:25:14.648Z,65.30
2017-04-07T05:26:12.411Z,64.20
2017-04-07T05:27:10.083Z,64.60
2017-04-07T05:28:07.926Z,63.70
2017-04-07T05:29:05.613Z,63.50
2017-04-07T05:30:03.496Z,64.10
2017-04-07T05:31:01.925Z,63.80
2017-04-07T05:31:59.877Z,63.50
2017-04-07T05:32:57.701Z,63.00
2017-04-07T05:33:55.336Z,63.20
2017-04-07T05:34:54.044Z,63.00
2017-04-07T05:35:51.967Z,63.40
2017-04-07T05:36:50.184Z,62.50
2017-04-07T05:38:11.516Z,63.30
2017-04-07T05:39:50.855Z,63.10
2017-04-07T05:41:00.165Z,63.20
2017-04-07T05:42:21.154Z,62.20
2017-04-07T05:43:33.006Z,62.60
2017-04-07T05:44:30.656Z,62.60
2017-04-07T05:45:28.368Z,62.80
2017-04-07T05:46:26.083Z,62.60
2017-04-07T05:47:23.892Z,62.30
2017-04-07T05:48:21.779Z,62.40
2017-04-07T05:49:19.503Z,62.90
2017-04-07T05:50:18.091Z,63.20
2017-04-07T05:51:15.880Z,62.30
2017-04-07T05:52:13.491Z,61.80
2017-04-07T05:53:11.327Z,61.80
2017-04-07T05:54:09.571Z,61.60
2017-04-07T05:55:07.501Z,61.20
2017-04-07T05:56:05.269Z,61.20
2017-04-07T05:57:03.160Z,60.70
2017-04-07T05:58:00.787Z,59.80
2017-04-07T05:58:58.918Z,60.80
2017-04-07T05:59:56.609Z,60.60
2017-04-07T06:00:55.072Z,60.40
2017-04-07T06:01:53.456Z,60.40
2017-04-07T06:02:51.483Z,60.80
2017-04-07T06:03:50.276Z,60.90
2017-04-07T06:04:48.056Z,61.30
2017-04-07T06:05:46.048Z,60.60
2017-04-07T06:06:43.753Z,60.90
2017-04-07T06:07:41.433Z,61.00
2017-04-07T06:08:39.831Z,60.30
2017-04-07T06:09:37.520Z,60.20
2017-04-07T06:10:35.331Z,59.60
2017-04-07T06:11:33.045Z,59.40
2017-04-07T06:12:31.235Z,59.10
2017-04-07T06:13:28.869Z,58.50
2017-04-07T06:14:26.607Z,58.10
2017-04-07T06:15:24.825Z,57.40
2017-04-07T06:16:22.517Z,57.70
2017-04-07T06:17:20.992Z,57.80
2017-04-07T06:18:18.647Z,57.90
2017-04-07T06:19:16.303Z,57.60
2017-04-07T06:20:13.979Z,57.40
2017-04-07T06:21:12.005Z,57.30
2017-04-07T06:22:09.680Z,57.50
2017-04-07T06:23:07.365Z,57.70
2017-04-07T06:24:05.034Z,58.10
2017-04-07T06:25:02.761Z,57.90
2017-04-07T06:26:00.464Z,57.70
2017-04-07T06:26:59.207Z,57.80
2017-04-07T06:27:56.938Z,57.80
2017-04-07T06:28:54.629Z,57.20
2017-04-07T06:29:52.295Z,56.80
2017-04-07T06:30:50.073Z,56.20
2017-04-07T06:31:47.695Z,55.80
2017-04-07T06:32:45.827Z,55.50
2017-04-07T06:33:45.221Z,56.50
2017-04-07T06:34:42.879Z,56.60
2017-04-07T06:35:40.585Z,56.70
2017-04-07T06:36:38.367Z,56.30
2017-04-07T06:37:36.041Z,56.40
2017-04-07T06:38:34.412Z,56.80
2017-04-07T06:39:32.182Z,56.40
2017-04-07T06:40:29.940Z,55.90
2017-04-07T06:41:27.573Z,56.60
2017-04-07T06:42:25.288Z,56.70
2017-04-07T06:43:23.003Z,55.90
2017-04-07T06:44:21.121Z,55.90
2017-04-07T06:45:18.840Z,55.30
2017-04-07T06:46:16.553Z,55.60
2017-04-07T06:47:14.320Z,55.30
2017-04-07T06:48:12.008Z,55.50
2017-04-07T06:49:09.717Z,55.20
2017-04-07T06:50:08.659Z,55.00
2017-04-07T06:51:06.304Z,55.10
2017-04-07T06:52:04.080Z,55.40
2017-04-07T06:53:02.604Z,55.60
2017-04-07T06:54:00.396Z,55.50
2017-04-07T06:54:58.099Z,55.20
2017-04-07T06:55:57.113Z,55.00
2017-04-07T06:56:54.772Z,54.50
2017-04-07T06:57:52.409Z,54.80
2017-04-07T06:58:50.067Z,54.50
2017-04-07T06:59:48.016Z,54.00
2017-04-07T07:00:46.608Z,53.30
2017-04-07T07:01:44.305Z,53.20
2017-04-07T07:02:50.271Z,53.60
2017-04-07T07:03:48.043Z,52.90
2017-04-07T07:04:46.359Z,53.20
2017-04-07T07:05:45.013Z,53.20
2017-04-07T07:06:43.273Z,53.50
2017-04-07T07:07:40.925Z,53.50
2017-04-07T07:08:38.576Z,52.80
2017-04-07T07:09:36.247Z,53.20
2017-04-07T07:10:34.276Z,53.20
2017-04-07T07:11:32.052Z,53.30
2017-04-07T07:12:29.976Z,53.60
2017-04-07T07:13:27.643Z,54.10
2017-04-07T07:14:25.327Z,54.00
2017-04-07T07:15:23.070Z,53.70
2017-04-07T07:16:20.715Z,53.50
2017-04-07T07:17:18.359Z,53.20
2017-04-07T07:18:16.020Z,53.00
2017-04-07T07:19:13.687Z,51.90
2017-04-07T07:20:12.564Z,52.00
2017-04-07T07:21:10.236Z,52.50
2017-04-07T07:22:07.905Z,52.20
2017-04-07T07:23:05.576Z,52.40
2017-04-07T07:24:03.325Z,53.20
2017-04-07T07:25:01.675Z,53.00
2017-04-07T07:25:59.699Z,52.40
2017-04-07T07:26:57.404Z,52.00
2017-04-07T07:27:55.087Z,51.60
2017-04-07T07:28:52.777Z,51.60
2017-04-07T07:29:50.488Z,51.90
2017-04-07T07:30:48.171Z,51.40
2017-04-07T07:31:46.220Z,51.70
2017-04-07T07:32:43.909Z,52.10
2017-04-07T07:33:42.588Z,52.60
2017-04-07T07:34:40.248Z,52.70
2017-04-07T07:35:37.993Z,52.60
2017-04-07T07:36:35.673Z,52.60
2017-04-07T07:37:33.348Z,53.30
2017-04-07T07:38:31.819Z,52.90
2017-04-07T07:39:29.544Z,53.70
2017-04-07T07:40:27.636Z,53.90
2017-04-07T07:41:25.266Z,53.40
2017-04-07T07:42:22.952Z,53.00
2017-04-07T07:43:20.619Z,52.80
2017-04-07T07:44:18.281Z,53.30
2017-04-07T07:45:16.416Z,52.90
2017-04-07T07:46:14.144Z,52.90
2017-04-07T07:47:12.372Z,52.20
2017-04-07T07:48:10.056Z,51.70
2017-04-07T07:49:08.016Z,52.40
2017-04-07T07:50:05.780Z,51.90
2017-04-07T07:51:03.501Z,52.10
2017-04-07T07:52:01.736Z,52.10
2017-04-07T07:52:59.440Z,51.70
2017-04-07T07:53:57.284Z,52.20
2017-04-07T07:54:54.952Z,51.40
2017-04-07T07:55:52.700Z,51.00
2017-04-07T07:56:50.406Z,51.00
2017-04-07T07:57:48.058Z,50.70
2017-04-07T07:58:45.801Z,50.60
2017-04-07T07:59:44.768Z,50.60
2017-04-07T08:00:42.521Z,51.00
2017-04-07T08:01:40.797Z,51.30
2017-04-07T08:02:38.490Z,51.70
2017-04-07T08:03:36.113Z,52.20
2017-04-07T08:04:34.120Z,51.80
2017-04-07T08:05:32.339Z,51.70
2017-04-07T08:06:30.985Z,52.30
2017-04-07T08:07:28.725Z,52.10
2017-04-07T08:08:27.013Z,52.20
2017-04-07T08:09:25.267Z,51.80
2017-04-07T08:10:22.944Z,51.70
2017-04-07T08:11:22.337Z,51.80
2017-04-07T08:12:20.509Z,51.80
2017-04-07T08:13:18.184Z,51.80
2017-04-07T08:14:15.859Z,52.30
2017-04-07T08:15:13.620Z,52.10
2017-04-07T08:16:11.595Z,52.10
2017-04-07T08:17:09.305Z,52.90
2017-04-07T08:18:07.008Z,52.20
2017-04-07T08:19:05.376Z,52.30
2017-04-07T08:20:03.137Z,52.40
2017-04-07T08:21:00.925Z,52.40
2017-04-07T08:21:58.601Z,52.80
2017-04-07T08:22:56.804Z,52.90
2017-04-07T08:23:54.470Z,54.80
2017-04-07T08:24:52.156Z,53.80
2017-04-07T08:25:49.895Z,53.10
2017-04-07T08:26:47.544Z,53.50
2017-04-07T08:27:45.411Z,53.50
2017-04-07T08:28:43.070Z,53.50
2017-04-07T08:29:40.998Z,53.30
2017-04-07T08:30:40.659Z,52.70
2017-04-07T08:31:38.312Z,53.90
2017-04-07T08:32:36.000Z,53.00
2017-04-07T08:33:33.656Z,52.10
2017-04-07T08:34:31.672Z,52.40
2017-04-07T08:35:30.167Z,52.40
2017-04-07T08:36:27.880Z,52.40
2017-04-07T08:37:25.816Z,52.40
2017-04-07T08:38:24.347Z,52.40
2017-04-07T08:39:21.997Z,52.90
2017-04-07T08:40:20.141Z,52.20
2017-04-07T08:41:17.866Z,52.40
2017-04-07T08:42:15.529Z,52.70
2017-04-07T08:43:15.435Z,51.90
2017-04-07T08:44:13.102Z,52.00
2017-04-07T08:45:11.444Z,51.90
2017-04-07T08:46:09.189Z,51.80
2017-04-07T08:47:06.895Z,51.50
2017-04-07T08:48:04.589Z,51.80
2017-04-07T08:49:02.665Z,52.30
2017-04-07T08:50:00.413Z,51.60
2017-04-07T08:50:58.128Z,52.50
2017-04-07T08:51:56.032Z,49.90
2017-04-07T08:52:54.399Z,50.90
2017-04-07T08:53:52.096Z,51.20
2017-04-07T08:54:50.012Z,51.10
2017-04-07T08:55:47.704Z,51.90
2017-04-07T08:56:45.382Z,51.40
2017-04-07T08:57:43.779Z,50.90
2017-04-07T08:58:41.444Z,51.00
2017-04-07T08:59:39.100Z,50.80
2017-04-07T09:00:37.197Z,51.60
2017-04-07T09:01:34.862Z,50.70
2017-04-07T09:02:32.945Z,50.80
2017-04-07T09:03:30.606Z,50.80
2017-04-07T09:04:28.296Z,50.60
2017-04-07T09:05:26.117Z,50.60
2017-04-07T09:06:23.844Z,50.60
2017-04-07T09:07:21.504Z,49.30
2017-04-07T09:08:19.199Z,48.50
2017-04-07T09:09:16.867Z,48.20
2017-04-07T09:10:14.933Z,49.50
2017-04-07T09:11:12.615Z,48.50
2017-04-07T09:12:10.311Z,48.20
2017-04-07T09:13:08.004Z,48.10
2017-04-07T09:14:05.664Z,48.20
2017-04-07T09:15:03.387Z,47.70
2017-04-07T09:16:01.364Z,47.80
2017-04-07T09:16:59.098Z,47.60
2017-04-07T09:17:56.785Z,48.20
2017-04-07T09:18:55.340Z,48.20
2017-04-07T09:19:52.977Z,50.10
2017-04-07T09:20:50.732Z,49.30
2017-04-07T09:21:49.001Z,48.00
2017-04-07T09:22:46.695Z,47.00
2017-04-07T09:23:44.431Z,46.50
2017-04-07T09:24:42.609Z,47.00
2017-04-07T09:25:40.404Z,46.90
2017-04-07T09:26:38.144Z,46.60
2017-04-07T09:27:35.802Z,47.80
2017-04-07T09:28:33.496Z,47.30
2017-04-07T09:29:31.187Z,48.60
2017-04-07T09:30:31.229Z,47.90
2017-04-07T09:31:28.959Z,44.90
2017-04-07T09:32:26.676Z,46.10
2017-04-07T09:33:24.333Z,44.80
2017-04-07T09:34:22.704Z,45.30
2017-04-07T09:35:20.391Z,46.80
2017-04-07T09:36:18.075Z,46.40
2017-04-07T09:37:15.797Z,44.00
2017-04-07T09:38:13.524Z,45.10
2017-04-07T09:39:11.247Z,45.20
2017-04-07T09:40:09.081Z,44.90
2017-04-07T09:41:06.783Z,44.10
2017-04-07T09:42:04.473Z,44.40
2017-04-07T09:43:02.159Z,44.10
2017-04-07T09:44:00.660Z,44.50
2017-04-07T09:44:58.359Z,44.00
2017-04-07T09:45:56.531Z,43.70
2017-04-07T09:46:54.196Z,43.40
2017-04-07T09:47:51.925Z,42.80
2017-04-07T09:48:50.415Z,42.80
2017-04-07T09:49:48.060Z,43.00
2017-04-07T09:50:45.824Z,42.30
2017-04-07T09:51:43.548Z,42.20
2017-04-07T09:52:41.224Z,42.60
2017-04-07T09:53:38.917Z,42.50
2017-04-07T09:54:36.628Z,43.30
2017-04-07T09:55:34.397Z,41.60
2017-04-07T09:56:32.132Z,42.80
2017-04-07T09:57:30.207Z,43.10
2017-04-07T09:58:27.920Z,43.20
2017-04-07T09:59:26.272Z,42.10
2017-04-07T10:00:24.049Z,43.40
2017-04-07T10:01:21.766Z,42.70
2017-04-07T10:02:19.500Z,42.20
2017-04-07T10:03:17.172Z,42.80
2017-04-07T10:04:14.840Z,40.40
2017-04-07T10:05:12.596Z,41.30
2017-04-07T10:06:10.290Z,40.00
2017-04-07T10:07:07.969Z,39.20
2017-04-07T10:08:05.689Z,40.70
2017-04-07T10:09:04.473Z,41.40
2017-04-07T10:10:02.232Z,41.10
2017-04-07T10:11:00.645Z,40.80
2017-04-07T10:11:58.369Z,40.90
2017-04-07T10:12:55.995Z,40.10
2017-04-07T10:13:53.648Z,41.10
2017-04-07T10:14:51.859Z,41.50
2017-04-07T10:15:49.568Z,39.50
2017-04-07T10:16:47.863Z,40.30
2017-04-07T10:17:45.538Z,40.20
2017-04-07T10:18:43.236Z,40.80
2017-04-07T10:19:40.952Z,40.80
2017-04-07T10:20:38.752Z,40.00
2017-04-07T10:21:36.425Z,40.70
2017-04-07T10:22:34.121Z,40.90
2017-04-07T10:23:32.347Z,40.30
2017-04-07T10:24:30.044Z,40.00
2017-04-07T10:25:27.848Z,39.60
2017-04-07T10:26:25.572Z,41.50
2017-04-07T10:27:23.227Z,39.70
2017-04-07T10:28:20.916Z,39.00
2017-04-07T10:29:18.601Z,39.50
2017-04-07T10:30:17.639Z,38.70
2017-04-07T10:31:15.288Z,39.10
2017-04-07T10:32:12.990Z,40.40
2017-04-07T10:33:10.680Z,38.50
2017-04-07T10:34:08.335Z,38.30
2017-04-07T10:35:06.119Z,38.50
2017-04-07T10:36:03.977Z,38.00
2017-04-07T10:37:02.353Z,38.70
2017-04-07T10:38:00.057Z,37.30
2017-04-07T10:38:58.391Z,36.70
2017-04-07T10:39:56.063Z,36.30
2017-04-07T10:40:53.811Z,35.60
2017-04-07T10:41:51.528Z,35.20
2017-04-07T10:42:49.207Z,32.90
2017-04-07T10:43:46.945Z,33.50
2017-04-07T10:44:44.663Z,32.90
2017-04-07T10:45:43.836Z,33.20
2017-04-07T10:46:41.611Z,32.50
2017-04-07T10:47:39.260Z,31.90
2017-04-07T10:48:36.960Z,31.60
2017-04-07T10:49:34.636Z,29.60
2017-04-07T10:50:32.462Z,30.60
2017-04-07T10:51:31.469Z,29.40
2017-04-07T10:52:29.172Z,29.20
2017-04-07T10:53:27.792Z,27.70
2017-04-07T10:54:25.532Z,27.50
2017-04-07T10:55:24.255Z,28.20
2017-04-07T10:56:21.956Z,27.30
2017-04-07T10:57:19.635Z,26.90
2017-04-07T10:58:17.319Z,27.40
2017-04-07T10:59:14.979Z,26.40
2017-04-07T11:00:13.690Z,26.60
2017-04-07T11:01:11.901Z,26.00
2017-04-07T11:02:09.592Z,25.60
2017-04-07T11:03:07.312Z,24.70
2017-04-07T11:04:05.019Z,23.50
2017-04-07T11:05:02.856Z,24.60
2017-04-07T11:06:01.225Z,23.80
2017-04-07T11:06:58.954Z,23.70
2017-04-07T11:07:56.714Z,23.60
2017-04-07T11:08:54.415Z,23.40
2017-04-07T11:09:52.076Z,24.30
2017-04-07T11:10:50.143Z,22.70
2017-04-07T11:11:47.806Z,22.60
2017-04-07T11:12:45.525Z,23.10
2017-04-07T11:13:43.214Z,22.50
2017-04-07T11:14:40.910Z,22.10
2017-04-07T11:15:38.598Z,22.30
2017-04-07T11:16:36.589Z,22.10
2017-04-07T11:17:34.284Z,21.30
2017-04-07T11:18:31.982Z,20.40
2017-04-07T11:19:29.645Z,19.90
2017-04-07T11:20:27.367Z,20.10
2017-04-07T11:21:25.057Z,19.70
2017-04-07T11:22:22.808Z,19.70
2017-04-07T11:23:20.508Z,19.00
2017-04-07T11:24:18.184Z,19.50
2017-04-07T11:25:17.113Z,18.50
2017-04-07T11:26:14.839Z,18.20
2017-04-07T11:27:12.533Z,18.30
2017-04-07T11:28:10.332Z,19.20
2017-04-07T11:29:08.044Z,18.20
2017-04-07T11:30:05.793Z,18.00
2017-04-07T11:31:04.312Z,18.10
2017-04-07T11:32:02.533Z,18.10
2017-04-07T11:33:00.187Z,17.90
2017-04-07T11:33:57.841Z,18.60
2017-04-07T11:34:55.552Z,17.80
2017-04-07T11:35:53.305Z,17.90
2017-04-07T11:36:50.984Z,18.80
2017-04-07T11:37:48.668Z,18.90
2017-04-07T11:38:46.325Z,19.50
2017-04-07T11:39:43.975Z,17.80
2017-04-07T11:40:41.669Z,17.90
2017-04-07T11:41:39.368Z,16.80
2017-04-07T11:42:37.427Z,16.50
2017-04-07T11:43:35.073Z,17.30
2017-04-07T11:44:34.372Z,17.60
2017-04-07T11:45:32.184Z,16.80
2017-04-07T11:46:29.923Z,16.70
2017-04-07T11:47:27.636Z,16.40
2017-04-07T11:48:25.326Z,15.70
2017-04-07T11:49:23.028Z,15.90
2017-04-07T11:50:21.124Z,16.20
2017-04-07T11:51:18.857Z,15.70
2017-04-07T11:52:16.551Z,15.80
2017-04-07T11:53:14.365Z,15.80
2017-04-07T11:54:12.072Z,15.20
2017-04-07T11:55:09.828Z,15.70
2017-04-07T11:56:08.180Z,16.20
2017-04-07T11:57:06.525Z,16.10
2017-04-07T11:58:04.845Z,15.70
2017-04-07T11:59:02.586Z,15.50
2017-04-07T12:00:00.300Z,15.60
2017-04-07T12:00:58.056Z,14.40
2017-04-07T12:01:56.325Z,14.70
2017-04-07T12:02:54.024Z,15.10
2017-04-07T12:03:51.677Z,15.80
2017-04-07T12:04:49.696Z,15.50
2017-04-07T12:05:47.492Z,15.90
2017-04-07T12:06:45.205Z,16.00
2017-04-07T12:07:42.875Z,15.70
2017-04-07T12:08:40.640Z,16.00
2017-04-07T12:09:38.342Z,15.40
2017-04-07T12:10:36.156Z,16.00
2017-04-07T12:11:33.830Z,15.60
2017-04-07T12:12:31.572Z,15.70
2017-04-07T12:13:30.190Z,15.40
2017-04-07T12:14:27.863Z,15.40
2017-04-07T12:15:25.660Z,14.70
2017-04-07T12:17:26.304Z,14.70
2017-04-07T12:18:24.014Z,14.70
2017-04-07T12:19:21.716Z,14.80
2017-04-07T12:20:19.438Z,14.90
2017-04-07T12:21:17.928Z,15.00
2017-04-07T12:22:15.688Z,14.40
2017-04-07T12:23:13.413Z,14.30
2017-04-07T12:24:11.134Z,14.00
2017-04-07T12:25:08.887Z,14.70
2017-04-07T12:26:07.364Z,14.50
2017-04-07T12:27:05.120Z,14.30
2017-04-07T12:28:03.519Z,14.20
2017-04-07T12:29:02.132Z,14.50
2017-04-07T12:29:59.792Z,14.70
2017-04-07T12:30:57.555Z,14.10
2017-04-07T12:31:55.248Z,14.40
2017-04-07T12:32:52.924Z,13.80
2017-04-07T12:33:50.605Z,14.00
2017-04-07T12:34:48.249Z,13.90
2017-04-07T12:35:46.013Z,14.30
2017-04-07T12:36:43.688Z,14.00